This is the latest recevied weather packets stored in our database for station/object LZ2SLL-13. If no packets are shown the sender has not sent any weather packets the latest 1 day(s).
| Time | Temp. | Humidity | Pressure | Rain* | Wind** | Luminosity | Snow |
|---|---|---|---|---|---|---|---|
| 1778068583 | 16.11° C | 58% | - | 0 mm | - | 877 W/m² | - |
| 1778067681 | 15.56° C | 60% | - | 0 mm | - | 902 W/m² | - |
| 1778067380 | 15.56° C | 63% | - | 0 mm | - | 911 W/m² | - |
| 1778066779 | 16.67° C | 56% | - | 0 mm | - | 932 W/m² | - |
| 1778066478 | 15.56° C | 61% | - | 0 mm | - | 935 W/m² | - |
| 1778065876 | 16.11° C | 60% | - | 0 mm | - | 949 W/m² | - |
| 1778065275 | 16.67° C | 59% | - | 0 mm | - | 963 W/m² | - |
| 1778064072 | 15.56° C | 62% | - | 0 mm | - | 980 W/m² | - |
| 1778063771 | 15° C | 66% | - | 0 mm | - | 982 W/m² | - |
| 1778063170 | 15° C | 69% | - | 0 mm | - | 990 W/m² | - |
| 1778062869 | 15° C | 68% | - | 0 mm | - | 1000 W/m² | - |
| 1778062268 | 15.56° C | 65% | - | 0 mm | - | 995 W/m² | - |
| 1778061366 | 15° C | 67% | - | 0 mm | - | 996 W/m² | - |
| 1778060464 | 15° C | 63% | - | 0 mm | - | 986 W/m² | - |
| 1778060163 | 14.44° C | 67% | - | 0 mm | - | 978 W/m² | - |
| 1778059562 | 14.44° C | 65% | - | 0 mm | - | 964 W/m² | - |
| 1778059261 | 15° C | 67% | - | 0 mm | - | 970 W/m² | - |
| 1778058359 | 15° C | 67% | - | 0 mm | - | 955 W/m² | - |
| 1778057457 | 13.89° C | 77% | - | 0 mm | - | 939 W/m² | - |
| 1778057156 | 14.44° C | 73% | - | 0 mm | - | 932 W/m² | - |
| 1778056554 | 14.44° C | 75% | - | 0 mm | - | 912 W/m² | - |
| 1778056254 | 13.33° C | 77% | - | 0 mm | - | 739 W/m² | - |
| 1778055953 | 12.78° C | 78% | - | 0 mm | - | 302 W/m² | - |
| 1778055051 | 13.33° C | 78% | - | 0 mm | - | 765 W/m² | - |
| 1778054750 | 14.44° C | 74% | - | 0 mm | - | 1031 W/m² | - |
* Rain latest hour (hover to see other rain measurements)
** Current wind speed in m/s (hover to see current wind gust speed)